sensor_id;sensor_type;location;lat;lon;timestamp;P1;durP1;ratioP1;P2;durP2;ratioP2
16159;SDS011;8185;57.818;15.224;2023-01-04T00:00:10;3.03;;;2.33;;
16159;SDS011;8185;57.818;15.224;2023-01-04T00:02:38;2.43;;;1.70;;
16159;SDS011;8185;57.818;15.224;2023-01-04T00:05:07;2.03;;;1.70;;
16159;SDS011;8185;57.818;15.224;2023-01-04T00:07:35;2.17;;;1.97;;
16159;SDS011;8185;57.818;15.224;2023-01-04T00:10:03;3.07;;;1.80;;
16159;SDS011;8185;57.818;15.224;2023-01-04T00:12:31;1.83;;;1.60;;
16159;SDS011;8185;57.818;15.224;2023-01-04T00:15:00;1.50;;;1.40;;
16159;SDS011;8185;57.818;15.224;2023-01-04T00:17:27;1.70;;;1.60;;
16159;SDS011;8185;57.818;15.224;2023-01-04T00:19:54;1.63;;;1.53;;
16159;SDS011;8185;57.818;15.224;2023-01-04T00:22:23;1.70;;;1.40;;
16159;SDS011;8185;57.818;15.224;2023-01-04T00:24:50;1.63;;;1.53;;
16159;SDS011;8185;57.818;15.224;2023-01-04T00:27:17;2.43;;;1.90;;
16159;SDS011;8185;57.818;15.224;2023-01-04T00:29:44;1.60;;;1.50;;
16159;SDS011;8185;57.818;15.224;2023-01-04T00:32:12;2.00;;;1.80;;
16159;SDS011;8185;57.818;15.224;2023-01-04T00:34:39;2.40;;;1.77;;
16159;SDS011;8185;57.818;15.224;2023-01-04T00:37:06;2.00;;;1.70;;
16159;SDS011;8185;57.818;15.224;2023-01-04T00:39:35;2.73;;;2.33;;
16159;SDS011;8185;57.818;15.224;2023-01-04T00:42:02;3.17;;;2.47;;
16159;SDS011;8185;57.818;15.224;2023-01-04T00:44:31;4.87;;;2.37;;
16159;SDS011;8185;57.818;15.224;2023-01-04T00:46:59;2.40;;;2.20;;
16159;SDS011;8185;57.818;15.224;2023-01-04T00:49:27;4.57;;;3.50;;
16159;SDS011;8185;57.818;15.224;2023-01-04T00:51:55;5.17;;;3.57;;
16159;SDS011;8185;57.818;15.224;2023-01-04T00:54:22;5.43;;;3.03;;
16159;SDS011;8185;57.818;15.224;2023-01-04T00:56:51;5.93;;;3.63;;
16159;SDS011;8185;57.818;15.224;2023-01-04T00:59:19;4.97;;;3.57;;
16159;SDS011;8185;57.818;15.224;2023-01-04T01:01:47;5.47;;;4.20;;
16159;SDS011;8185;57.818;15.224;2023-01-04T01:04:15;5.73;;;4.30;;
16159;SDS011;8185;57.818;15.224;2023-01-04T01:06:43;4.73;;;3.90;;
16159;SDS011;8185;57.818;15.224;2023-01-04T01:09:11;6.67;;;4.30;;
16159;SDS011;8185;57.818;15.224;2023-01-04T01:11:39;8.33;;;5.27;;
16159;SDS011;8185;57.818;15.224;2023-01-04T01:14:08;7.87;;;5.87;;
16159;SDS011;8185;57.818;15.224;2023-01-04T01:16:41;9.47;;;5.77;;
16159;SDS011;8185;57.818;15.224;2023-01-04T01:19:08;6.87;;;4.70;;
16159;SDS011;8185;57.818;15.224;2023-01-04T01:21:36;5.37;;;3.70;;
16159;SDS011;8185;57.818;15.224;2023-01-04T01:24:04;6.77;;;3.80;;
16159;SDS011;8185;57.818;15.224;2023-01-04T01:26:32;3.00;;;2.80;;
16159;SDS011;8185;57.818;15.224;2023-01-04T01:28:59;3.60;;;3.00;;
16159;SDS011;8185;57.818;15.224;2023-01-04T01:31:28;3.47;;;2.50;;
16159;SDS011;8185;57.818;15.224;2023-01-04T01:33:55;3.43;;;2.47;;
16159;SDS011;8185;57.818;15.224;2023-01-04T01:36:23;2.50;;;1.90;;
16159;SDS011;8185;57.818;15.224;2023-01-04T01:38:51;3.30;;;2.20;;
16159;SDS011;8185;57.818;15.224;2023-01-04T01:41:20;3.47;;;1.57;;
16159;SDS011;8185;57.818;15.224;2023-01-04T01:43:52;4.60;;;1.63;;
16159;SDS011;8185;57.818;15.224;2023-01-04T01:46:22;1.50;;;1.40;;
16159;SDS011;8185;57.818;15.224;2023-01-04T01:48:55;2.23;;;1.60;;
16159;SDS011;8185;57.818;15.224;2023-01-04T01:51:24;1.73;;;1.57;;
16159;SDS011;8185;57.818;15.224;2023-01-04T01:53:53;1.90;;;1.67;;
16159;SDS011;8185;57.818;15.224;2023-01-04T01:56:24;1.80;;;1.70;;
16159;SDS011;8185;57.818;15.224;2023-01-04T01:58:55;1.57;;;1.47;;
16159;SDS011;8185;57.818;15.224;2023-01-04T02:01:25;1.60;;;1.50;;
16159;SDS011;8185;57.818;15.224;2023-01-04T02:03:54;2.37;;;1.70;;
16159;SDS011;8185;57.818;15.224;2023-01-04T02:06:24;2.23;;;1.80;;
16159;SDS011;8185;57.818;15.224;2023-01-04T02:08:55;2.97;;;1.57;;
16159;SDS011;8185;57.818;15.224;2023-01-04T02:11:22;1.93;;;1.50;;
16159;SDS011;8185;57.818;15.224;2023-01-04T02:13:50;1.53;;;1.40;;
16159;SDS011;8185;57.818;15.224;2023-01-04T02:22:37;1.73;;;1.43;;
16159;SDS011;8185;57.818;15.224;2023-01-04T02:28:27;1.37;;;1.27;;
16159;SDS011;8185;57.818;15.224;2023-01-04T02:31:20;1.77;;;1.50;;
16159;SDS011;8185;57.818;15.224;2023-01-04T02:33:57;1.53;;;1.43;;
16159;SDS011;8185;57.818;15.224;2023-01-04T02:36:32;1.83;;;1.50;;
16159;SDS011;8185;57.818;15.224;2023-01-04T02:39:04;2.10;;;1.20;;
16159;SDS011;8185;57.818;15.224;2023-01-04T02:41:40;2.07;;;1.73;;
16159;SDS011;8185;57.818;15.224;2023-01-04T02:44:13;1.50;;;1.40;;
16159;SDS011;8185;57.818;15.224;2023-01-04T02:47:03;1.53;;;1.43;;
16159;SDS011;8185;57.818;15.224;2023-01-04T02:49:34;1.50;;;1.40;;
16159;SDS011;8185;57.818;15.224;2023-01-04T02:52:19;1.40;;;1.30;;
16159;SDS011;8185;57.818;15.224;2023-01-04T02:54:48;1.73;;;1.53;;
16159;SDS011;8185;57.818;15.224;2023-01-04T02:57:24;1.30;;;1.20;;
16159;SDS011;8185;57.818;15.224;2023-01-04T03:03:04;1.60;;;1.50;;
16159;SDS011;8185;57.818;15.224;2023-01-04T03:06:00;2.13;;;1.80;;
16159;SDS011;8185;57.818;15.224;2023-01-04T03:08:53;2.50;;;2.30;;
16159;SDS011;8185;57.818;15.224;2023-01-04T03:11:28;2.47;;;2.00;;
16159;SDS011;8185;57.818;15.224;2023-01-04T03:14:18;2.13;;;1.93;;
16159;SDS011;8185;57.818;15.224;2023-01-04T03:16:48;2.50;;;2.30;;
16159;SDS011;8185;57.818;15.224;2023-01-04T03:19:18;4.10;;;2.10;;
16159;SDS011;8185;57.818;15.224;2023-01-04T03:22:13;2.93;;;2.03;;
16159;SDS011;8185;57.818;15.224;2023-01-04T03:25:01;3.27;;;2.23;;
16159;SDS011;8185;57.818;15.224;2023-01-04T03:27:47;3.30;;;2.23;;
16159;SDS011;8185;57.818;15.224;2023-01-04T03:30:34;2.07;;;1.87;;
16159;SDS011;8185;57.818;15.224;2023-01-04T03:33:25;2.07;;;1.87;;
16159;SDS011;8185;57.818;15.224;2023-01-04T03:36:17;2.10;;;1.90;;
16159;SDS011;8185;57.818;15.224;2023-01-04T03:38:54;3.00;;;2.47;;
16159;SDS011;8185;57.818;15.224;2023-01-04T03:41:45;3.03;;;2.03;;
16159;SDS011;8185;57.818;15.224;2023-01-04T03:44:33;3.70;;;1.90;;
16159;SDS011;8185;57.818;15.224;2023-01-04T03:47:26;5.13;;;2.40;;
16159;SDS011;8185;57.818;15.224;2023-01-04T03:50:16;3.50;;;2.33;;
16159;SDS011;8185;57.818;15.224;2023-01-04T03:52:50;3.33;;;2.53;;
16159;SDS011;8185;57.818;15.224;2023-01-04T03:55:22;4.87;;;2.80;;
16159;SDS011;8185;57.818;15.224;2023-01-04T03:57:50;3.20;;;2.90;;
16159;SDS011;8185;57.818;15.224;2023-01-04T04:00:18;4.83;;;3.17;;
16159;SDS011;8185;57.818;15.224;2023-01-04T04:02:46;3.40;;;3.00;;
16159;SDS011;8185;57.818;15.224;2023-01-04T04:05:15;6.43;;;2.70;;
16159;SDS011;8185;57.818;15.224;2023-01-04T04:08:03;7.53;;;3.47;;
16159;SDS011;8185;57.818;15.224;2023-01-04T04:10:48;4.83;;;2.90;;
16159;SDS011;8185;57.818;15.224;2023-01-04T04:13:15;5.30;;;2.90;;
16159;SDS011;8185;57.818;15.224;2023-01-04T04:15:42;4.17;;;3.30;;
16159;SDS011;8185;57.818;15.224;2023-01-04T04:18:10;5.93;;;3.47;;
16159;SDS011;8185;57.818;15.224;2023-01-04T04:20:37;6.97;;;4.20;;
16159;SDS011;8185;57.818;15.224;2023-01-04T04:23:06;4.13;;;3.57;;
16159;SDS011;8185;57.818;15.224;2023-01-04T04:25:33;8.87;;;4.03;;
16159;SDS011;8185;57.818;15.224;2023-01-04T04:28:00;8.40;;;3.93;;
16159;SDS011;8185;57.818;15.224;2023-01-04T04:30:27;7.13;;;4.10;;
16159;SDS011;8185;57.818;15.224;2023-01-04T04:32:55;7.80;;;4.43;;
16159;SDS011;8185;57.818;15.224;2023-01-04T04:35:22;6.60;;;4.80;;
16159;SDS011;8185;57.818;15.224;2023-01-04T04:37:49;6.47;;;4.67;;
16159;SDS011;8185;57.818;15.224;2023-01-04T04:40:17;10.53;;;5.17;;
16159;SDS011;8185;57.818;15.224;2023-01-04T04:42:58;7.90;;;4.87;;
16159;SDS011;8185;57.818;15.224;2023-01-04T04:45:26;8.90;;;4.47;;
16159;SDS011;8185;57.818;15.224;2023-01-04T04:47:53;10.13;;;5.37;;
16159;SDS011;8185;57.818;15.224;2023-01-04T04:50:20;7.90;;;4.43;;
16159;SDS011;8185;57.818;15.224;2023-01-04T04:52:47;7.90;;;4.00;;
16159;SDS011;8185;57.818;15.224;2023-01-04T04:55:14;7.47;;;4.73;;
16159;SDS011;8185;57.818;15.224;2023-01-04T04:57:43;8.50;;;4.37;;
16159;SDS011;8185;57.818;15.224;2023-01-04T05:00:11;11.57;;;4.50;;
16159;SDS011;8185;57.818;15.224;2023-01-04T05:02:39;6.47;;;4.20;;
16159;SDS011;8185;57.818;15.224;2023-01-04T05:05:07;9.60;;;4.17;;
16159;SDS011;8185;57.818;15.224;2023-01-04T05:07:34;7.03;;;3.93;;
16159;SDS011;8185;57.818;15.224;2023-01-04T05:10:01;7.07;;;4.00;;
16159;SDS011;8185;57.818;15.224;2023-01-04T05:12:29;7.27;;;4.03;;
16159;SDS011;8185;57.818;15.224;2023-01-04T05:15:15;6.50;;;3.87;;
16159;SDS011;8185;57.818;15.224;2023-01-04T05:17:42;9.27;;;4.53;;
16159;SDS011;8185;57.818;15.224;2023-01-04T05:20:10;6.90;;;3.73;;
16159;SDS011;8185;57.818;15.224;2023-01-04T05:22:37;7.37;;;4.03;;
16159;SDS011;8185;57.818;15.224;2023-01-04T05:25:05;7.23;;;4.30;;
16159;SDS011;8185;57.818;15.224;2023-01-04T05:27:34;7.40;;;4.13;;
16159;SDS011;8185;57.818;15.224;2023-01-04T05:30:01;6.43;;;3.93;;
16159;SDS011;8185;57.818;15.224;2023-01-04T05:32:48;6.20;;;3.90;;
16159;SDS011;8185;57.818;15.224;2023-01-04T05:35:15;6.37;;;3.60;;
16159;SDS011;8185;57.818;15.224;2023-01-04T05:37:42;6.90;;;3.63;;
16159;SDS011;8185;57.818;15.224;2023-01-04T05:40:09;5.20;;;3.40;;
16159;SDS011;8185;57.818;15.224;2023-01-04T05:42:37;5.60;;;3.73;;
16159;SDS011;8185;57.818;15.224;2023-01-04T05:45:04;6.83;;;3.50;;
16159;SDS011;8185;57.818;15.224;2023-01-04T05:47:32;5.27;;;3.40;;
16159;SDS011;8185;57.818;15.224;2023-01-04T05:50:01;6.57;;;3.30;;
16159;SDS011;8185;57.818;15.224;2023-01-04T05:52:29;5.60;;;2.97;;
16159;SDS011;8185;57.818;15.224;2023-01-04T05:54:56;3.87;;;2.83;;
16159;SDS011;8185;57.818;15.224;2023-01-04T05:57:23;6.67;;;3.33;;
16159;SDS011;8185;57.818;15.224;2023-01-04T05:59:50;4.73;;;2.77;;
16159;SDS011;8185;57.818;15.224;2023-01-04T06:02:19;5.70;;;3.20;;
16159;SDS011;8185;57.818;15.224;2023-01-04T06:04:49;5.07;;;3.57;;
16159;SDS011;8185;57.818;15.224;2023-01-04T06:07:17;4.23;;;2.93;;
16159;SDS011;8185;57.818;15.224;2023-01-04T06:09:45;5.73;;;2.87;;
16159;SDS011;8185;57.818;15.224;2023-01-04T06:12:12;3.23;;;2.77;;
16159;SDS011;8185;57.818;15.224;2023-01-04T06:14:39;3.70;;;2.60;;
16159;SDS011;8185;57.818;15.224;2023-01-04T06:17:06;4.87;;;2.73;;
16159;SDS011;8185;57.818;15.224;2023-01-04T06:19:34;5.37;;;2.97;;
16159;SDS011;8185;57.818;15.224;2023-01-04T06:22:01;3.50;;;2.73;;
16159;SDS011;8185;57.818;15.224;2023-01-04T06:24:29;12.27;;;4.03;;
16159;SDS011;8185;57.818;15.224;2023-01-04T06:26:58;6.80;;;3.23;;
16159;SDS011;8185;57.818;15.224;2023-01-04T06:29:25;8.10;;;2.70;;
16159;SDS011;8185;57.818;15.224;2023-01-04T06:31:52;4.30;;;2.67;;
16159;SDS011;8185;57.818;15.224;2023-01-04T06:34:20;4.83;;;3.10;;
16159;SDS011;8185;57.818;15.224;2023-01-04T06:36:47;4.23;;;3.03;;
16159;SDS011;8185;57.818;15.224;2023-01-04T06:39:14;4.10;;;3.07;;
16159;SDS011;8185;57.818;15.224;2023-01-04T06:41:43;3.20;;;2.60;;
16159;SDS011;8185;57.818;15.224;2023-01-04T06:44:10;4.60;;;2.73;;
16159;SDS011;8185;57.818;15.224;2023-01-04T06:46:37;5.43;;;3.00;;
16159;SDS011;8185;57.818;15.224;2023-01-04T06:49:05;4.07;;;2.90;;
16159;SDS011;8185;57.818;15.224;2023-01-04T06:51:32;3.03;;;2.70;;
16159;SDS011;8185;57.818;15.224;2023-01-04T06:53:59;4.40;;;2.67;;
16159;SDS011;8185;57.818;15.224;2023-01-04T06:56:26;7.30;;;2.83;;
16159;SDS011;8185;57.818;15.224;2023-01-04T06:58:56;5.13;;;2.90;;
16159;SDS011;8185;57.818;15.224;2023-01-04T07:01:23;3.17;;;2.60;;
16159;SDS011;8185;57.818;15.224;2023-01-04T07:03:51;3.73;;;2.43;;
16159;SDS011;8185;57.818;15.224;2023-01-04T07:06:18;3.00;;;2.33;;
16159;SDS011;8185;57.818;15.224;2023-01-04T07:08:45;3.27;;;2.30;;
16159;SDS011;8185;57.818;15.224;2023-01-04T07:11:12;5.53;;;2.37;;
16159;SDS011;8185;57.818;15.224;2023-01-04T07:13:39;3.47;;;2.70;;
16159;SDS011;8185;57.818;15.224;2023-01-04T07:16:08;4.27;;;3.00;;
16159;SDS011;8185;57.818;15.224;2023-01-04T07:18:35;4.67;;;3.10;;
16159;SDS011;8185;57.818;15.224;2023-01-04T07:21:02;3.13;;;2.47;;
16159;SDS011;8185;57.818;15.224;2023-01-04T07:23:30;2.67;;;2.43;;
16159;SDS011;8185;57.818;15.224;2023-01-04T07:25:59;2.67;;;2.20;;
16159;SDS011;8185;57.818;15.224;2023-01-04T07:28:27;3.07;;;2.50;;
16159;SDS011;8185;57.818;15.224;2023-01-04T07:31:14;5.03;;;2.50;;
16159;SDS011;8185;57.818;15.224;2023-01-04T07:33:41;3.00;;;2.10;;
16159;SDS011;8185;57.818;15.224;2023-01-04T07:36:08;3.63;;;2.20;;
16159;SDS011;8185;57.818;15.224;2023-01-04T07:38:35;3.87;;;2.20;;
16159;SDS011;8185;57.818;15.224;2023-01-04T07:41:03;3.77;;;2.40;;
16159;SDS011;8185;57.818;15.224;2023-01-04T07:43:30;2.43;;;2.17;;
16159;SDS011;8185;57.818;15.224;2023-01-04T07:45:57;2.20;;;2.00;;
16159;SDS011;8185;57.818;15.224;2023-01-04T07:48:26;2.67;;;1.87;;
16159;SDS011;8185;57.818;15.224;2023-01-04T07:50:53;2.07;;;1.70;;
16159;SDS011;8185;57.818;15.224;2023-01-04T07:53:21;2.03;;;1.60;;
16159;SDS011;8185;57.818;15.224;2023-01-04T07:55:48;2.27;;;1.70;;
16159;SDS011;8185;57.818;15.224;2023-01-04T07:58:20;3.03;;;2.07;;
16159;SDS011;8185;57.818;15.224;2023-01-04T08:00:48;3.10;;;1.77;;
16159;SDS011;8185;57.818;15.224;2023-01-04T08:03:15;1.70;;;1.33;;
16159;SDS011;8185;57.818;15.224;2023-01-04T08:05:44;2.20;;;1.60;;
16159;SDS011;8185;57.818;15.224;2023-01-04T08:08:11;2.00;;;1.77;;
16159;SDS011;8185;57.818;15.224;2023-01-04T08:10:38;1.70;;;1.60;;
16159;SDS011;8185;57.818;15.224;2023-01-04T08:13:05;1.70;;;1.60;;
16159;SDS011;8185;57.818;15.224;2023-01-04T08:15:32;1.70;;;1.60;;
16159;SDS011;8185;57.818;15.224;2023-01-04T08:18:00;2.70;;;1.60;;
16159;SDS011;8185;57.818;15.224;2023-01-04T08:20:27;1.97;;;1.60;;
16159;SDS011;8185;57.818;15.224;2023-01-04T08:22:55;1.57;;;1.20;;
16159;SDS011;8185;57.818;15.224;2023-01-04T08:25:22;1.47;;;1.17;;
16159;SDS011;8185;57.818;15.224;2023-01-04T08:27:49;1.40;;;1.23;;
16159;SDS011;8185;57.818;15.224;2023-01-04T08:30:17;1.30;;;1.20;;
16159;SDS011;8185;57.818;15.224;2023-01-04T08:32:44;1.20;;;0.93;;
16159;SDS011;8185;57.818;15.224;2023-01-04T08:35:11;1.20;;;1.10;;
16159;SDS011;8185;57.818;15.224;2023-01-04T08:37:38;1.40;;;1.00;;
16159;SDS011;8185;57.818;15.224;2023-01-04T08:40:08;2.20;;;0.97;;
16159;SDS011;8185;57.818;15.224;2023-01-04T08:42:36;1.20;;;1.07;;
16159;SDS011;8185;57.818;15.224;2023-01-04T08:45:03;0.90;;;0.80;;
16159;SDS011;8185;57.818;15.224;2023-01-04T08:47:31;0.90;;;0.90;;
16159;SDS011;8185;57.818;15.224;2023-01-04T08:49:58;0.80;;;0.80;;
16159;SDS011;8185;57.818;15.224;2023-01-04T08:52:26;0.80;;;0.80;;
16159;SDS011;8185;57.818;15.224;2023-01-04T08:54:53;0.97;;;0.87;;
16159;SDS011;8185;57.818;15.224;2023-01-04T08:57:22;1.17;;;1.07;;
16159;SDS011;8185;57.818;15.224;2023-01-04T08:59:49;0.90;;;0.90;;
16159;SDS011;8185;57.818;15.224;2023-01-04T09:02:20;0.70;;;0.70;;
16159;SDS011;8185;57.818;15.224;2023-01-04T09:04:48;0.77;;;0.77;;
16159;SDS011;8185;57.818;15.224;2023-01-04T09:07:15;1.40;;;0.90;;
16159;SDS011;8185;57.818;15.224;2023-01-04T09:09:43;1.30;;;1.00;;
16159;SDS011;8185;57.818;15.224;2023-01-04T09:12:10;0.90;;;0.90;;
16159;SDS011;8185;57.818;15.224;2023-01-04T09:14:39;1.17;;;1.07;;
16159;SDS011;8185;57.818;15.224;2023-01-04T09:17:06;1.27;;;1.00;;
16159;SDS011;8185;57.818;15.224;2023-01-04T09:19:33;0.90;;;0.90;;
16159;SDS011;8185;57.818;15.224;2023-01-04T09:22:01;0.90;;;0.90;;
16159;SDS011;8185;57.818;15.224;2023-01-04T09:24:28;0.93;;;0.87;;
16159;SDS011;8185;57.818;15.224;2023-01-04T09:26:57;1.40;;;1.00;;
16159;SDS011;8185;57.818;15.224;2023-01-04T09:29:25;1.03;;;0.93;;
16159;SDS011;8185;57.818;15.224;2023-01-04T09:31:54;1.00;;;0.97;;
16159;SDS011;8185;57.818;15.224;2023-01-04T09:34:21;0.70;;;0.70;;
16159;SDS011;8185;57.818;15.224;2023-01-04T09:36:48;0.97;;;0.90;;
16159;SDS011;8185;57.818;15.224;2023-01-04T09:39:16;1.20;;;1.10;;
16159;SDS011;8185;57.818;15.224;2023-01-04T09:41:44;1.10;;;0.90;;
16159;SDS011;8185;57.818;15.224;2023-01-04T09:44:21;0.70;;;0.70;;
16159;SDS011;8185;57.818;15.224;2023-01-04T09:47:02;0.70;;;0.70;;
16159;SDS011;8185;57.818;15.224;2023-01-04T09:49:33;0.73;;;0.73;;
16159;SDS011;8185;57.818;15.224;2023-01-04T09:52:08;0.57;;;0.57;;
16159;SDS011;8185;57.818;15.224;2023-01-04T09:54:41;0.60;;;0.60;;
16159;SDS011;8185;57.818;15.224;2023-01-04T09:57:15;0.70;;;0.70;;
16159;SDS011;8185;57.818;15.224;2023-01-04T09:59:48;1.67;;;0.60;;
16159;SDS011;8185;57.818;15.224;2023-01-04T10:02:20;0.70;;;0.60;;
16159;SDS011;8185;57.818;15.224;2023-01-04T10:04:51;0.50;;;0.50;;
16159;SDS011;8185;57.818;15.224;2023-01-04T10:07:22;0.50;;;0.50;;
16159;SDS011;8185;57.818;15.224;2023-01-04T10:09:52;0.50;;;0.47;;
16159;SDS011;8185;57.818;15.224;2023-01-04T10:12:30;0.30;;;0.30;;
16159;SDS011;8185;57.818;15.224;2023-01-04T10:15:13;0.70;;;0.40;;
16159;SDS011;8185;57.818;15.224;2023-01-04T10:17:57;0.40;;;0.40;;
16159;SDS011;8185;57.818;15.224;2023-01-04T10:20:47;0.40;;;0.40;;
16159;SDS011;8185;57.818;15.224;2023-01-04T10:23:26;0.40;;;0.40;;
16159;SDS011;8185;57.818;15.224;2023-01-04T10:26:04;0.50;;;0.50;;
16159;SDS011;8185;57.818;15.224;2023-01-04T10:28:47;0.30;;;0.30;;
16159;SDS011;8185;57.818;15.224;2023-01-04T10:31:34;0.40;;;0.40;;
16159;SDS011;8185;57.818;15.224;2023-01-04T10:34:14;0.30;;;0.30;;
16159;SDS011;8185;57.818;15.224;2023-01-04T10:36:47;0.40;;;0.40;;
16159;SDS011;8185;57.818;15.224;2023-01-04T10:39:17;0.40;;;0.40;;
16159;SDS011;8185;57.818;15.224;2023-01-04T10:41:49;0.40;;;0.40;;
16159;SDS011;8185;57.818;15.224;2023-01-04T10:44:21;0.53;;;0.40;;
16159;SDS011;8185;57.818;15.224;2023-01-04T10:46:55;0.40;;;0.40;;
16159;SDS011;8185;57.818;15.224;2023-01-04T10:49:34;0.40;;;0.40;;
16159;SDS011;8185;57.818;15.224;2023-01-04T10:52:09;0.60;;;0.40;;
16159;SDS011;8185;57.818;15.224;2023-01-04T10:54:40;0.43;;;0.33;;
16159;SDS011;8185;57.818;15.224;2023-01-04T10:57:14;0.40;;;0.40;;
16159;SDS011;8185;57.818;15.224;2023-01-04T10:59:47;0.30;;;0.30;;
16159;SDS011;8185;57.818;15.224;2023-01-04T11:02:21;0.30;;;0.30;;
16159;SDS011;8185;57.818;15.224;2023-01-04T11:04:55;0.30;;;0.30;;
16159;SDS011;8185;57.818;15.224;2023-01-04T11:07:26;0.40;;;0.40;;
16159;SDS011;8185;57.818;15.224;2023-01-04T11:10:05;0.30;;;0.30;;
16159;SDS011;8185;57.818;15.224;2023-01-04T11:12:37;0.40;;;0.30;;
16159;SDS011;8185;57.818;15.224;2023-01-04T11:15:05;0.40;;;0.30;;
16159;SDS011;8185;57.818;15.224;2023-01-04T11:17:33;0.37;;;0.37;;
16159;SDS011;8185;57.818;15.224;2023-01-04T11:20:02;0.40;;;0.40;;
16159;SDS011;8185;57.818;15.224;2023-01-04T11:22:33;0.30;;;0.30;;
16159;SDS011;8185;57.818;15.224;2023-01-04T11:25:06;0.30;;;0.30;;
16159;SDS011;8185;57.818;15.224;2023-01-04T11:27:39;0.20;;;0.20;;
16159;SDS011;8185;57.818;15.224;2023-01-04T11:30:13;0.30;;;0.30;;
16159;SDS011;8185;57.818;15.224;2023-01-04T11:32:44;0.30;;;0.30;;
16159;SDS011;8185;57.818;15.224;2023-01-04T11:38:09;0.30;;;0.30;;
16159;SDS011;8185;57.818;15.224;2023-01-04T11:40:38;0.30;;;0.30;;
16159;SDS011;8185;57.818;15.224;2023-01-04T11:43:10;0.20;;;0.20;;
16159;SDS011;8185;57.818;15.224;2023-01-04T11:45:51;0.27;;;0.27;;
16159;SDS011;8185;57.818;15.224;2023-01-04T11:48:19;0.20;;;0.20;;
16159;SDS011;8185;57.818;15.224;2023-01-04T11:50:59;0.30;;;0.30;;
16159;SDS011;8185;57.818;15.224;2023-01-04T11:53:28;0.30;;;0.30;;
16159;SDS011;8185;57.818;15.224;2023-01-04T11:56:07;0.20;;;0.20;;
16159;SDS011;8185;57.818;15.224;2023-01-04T11:58:39;0.20;;;0.20;;
16159;SDS011;8185;57.818;15.224;2023-01-04T12:01:17;0.20;;;0.20;;
16159;SDS011;8185;57.818;15.224;2023-01-04T12:03:46;0.20;;;0.20;;
16159;SDS011;8185;57.818;15.224;2023-01-04T12:06:15;0.30;;;0.30;;
16159;SDS011;8185;57.818;15.224;2023-01-04T12:08:58;0.20;;;0.20;;
16159;SDS011;8185;57.818;15.224;2023-01-04T12:11:27;0.20;;;0.20;;
16159;SDS011;8185;57.818;15.224;2023-01-04T12:13:56;0.30;;;0.30;;
16159;SDS011;8185;57.818;15.224;2023-01-04T12:16:32;0.20;;;0.20;;
16159;SDS011;8185;57.818;15.224;2023-01-04T12:19:08;0.20;;;0.20;;
16159;SDS011;8185;57.818;15.224;2023-01-04T12:21:41;0.20;;;0.20;;
16159;SDS011;8185;57.818;15.224;2023-01-04T12:24:13;0.20;;;0.20;;
16159;SDS011;8185;57.818;15.224;2023-01-04T12:26:44;0.20;;;0.20;;
16159;SDS011;8185;57.818;15.224;2023-01-04T12:29:38;0.30;;;0.30;;
16159;SDS011;8185;57.818;15.224;2023-01-04T12:32:37;1.27;;;0.30;;
16159;SDS011;8185;57.818;15.224;2023-01-04T12:38:09;0.50;;;0.30;;
16159;SDS011;8185;57.818;15.224;2023-01-04T12:40:52;0.30;;;0.30;;
16159;SDS011;8185;57.818;15.224;2023-01-04T12:43:23;0.20;;;0.20;;
16159;SDS011;8185;57.818;15.224;2023-01-04T12:52:34;0.30;;;0.30;;
16159;SDS011;8185;57.818;15.224;2023-01-04T13:01:21;0.30;;;0.30;;
16159;SDS011;8185;57.818;15.224;2023-01-04T13:03:53;0.27;;;0.23;;
16159;SDS011;8185;57.818;15.224;2023-01-04T13:06:22;0.20;;;0.20;;
16159;SDS011;8185;57.818;15.224;2023-01-04T13:08:54;0.20;;;0.20;;
16159;SDS011;8185;57.818;15.224;2023-01-04T13:14:26;0.20;;;0.20;;
16159;SDS011;8185;57.818;15.224;2023-01-04T13:17:12;0.20;;;0.20;;
16159;SDS011;8185;57.818;15.224;2023-01-04T13:19:42;0.30;;;0.30;;
16159;SDS011;8185;57.818;15.224;2023-01-04T13:22:14;0.20;;;0.20;;
16159;SDS011;8185;57.818;15.224;2023-01-04T13:24:47;0.20;;;0.20;;
16159;SDS011;8185;57.818;15.224;2023-01-04T13:27:17;0.20;;;0.20;;
16159;SDS011;8185;57.818;15.224;2023-01-04T13:29:46;0.20;;;0.20;;
16159;SDS011;8185;57.818;15.224;2023-01-04T13:32:15;0.20;;;0.20;;
16159;SDS011;8185;57.818;15.224;2023-01-04T13:34:52;0.30;;;0.30;;
16159;SDS011;8185;57.818;15.224;2023-01-04T13:37:27;0.20;;;0.20;;
16159;SDS011;8185;57.818;15.224;2023-01-04T13:40:01;0.20;;;0.20;;
16159;SDS011;8185;57.818;15.224;2023-01-04T13:42:57;0.67;;;0.37;;
16159;SDS011;8185;57.818;15.224;2023-01-04T13:45:37;0.27;;;0.27;;
16159;SDS011;8185;57.818;15.224;2023-01-04T13:48:23;0.30;;;0.30;;
16159;SDS011;8185;57.818;15.224;2023-01-04T13:50:59;0.20;;;0.20;;
16159;SDS011;8185;57.818;15.224;2023-01-04T13:53:28;0.20;;;0.20;;
16159;SDS011;8185;57.818;15.224;2023-01-04T13:55:56;0.30;;;0.30;;
16159;SDS011;8185;57.818;15.224;2023-01-04T13:58:28;0.20;;;0.20;;
16159;SDS011;8185;57.818;15.224;2023-01-04T14:00:57;0.20;;;0.20;;
16159;SDS011;8185;57.818;15.224;2023-01-04T14:03:33;0.53;;;0.30;;
16159;SDS011;8185;57.818;15.224;2023-01-04T14:06:13;0.20;;;0.20;;
16159;SDS011;8185;57.818;15.224;2023-01-04T14:08:46;0.30;;;0.30;;
16159;SDS011;8185;57.818;15.224;2023-01-04T14:11:20;0.30;;;0.30;;
16159;SDS011;8185;57.818;15.224;2023-01-04T14:14:23;0.20;;;0.20;;
16159;SDS011;8185;57.818;15.224;2023-01-04T14:17:12;0.30;;;0.30;;
16159;SDS011;8185;57.818;15.224;2023-01-04T14:19:51;0.37;;;0.30;;
16159;SDS011;8185;57.818;15.224;2023-01-04T14:22:33;0.30;;;0.30;;
16159;SDS011;8185;57.818;15.224;2023-01-04T14:28:17;0.40;;;0.30;;
16159;SDS011;8185;57.818;15.224;2023-01-04T14:30:54;0.30;;;0.30;;
16159;SDS011;8185;57.818;15.224;2023-01-04T14:33:38;0.30;;;0.30;;
16159;SDS011;8185;57.818;15.224;2023-01-04T14:36:10;0.30;;;0.30;;
16159;SDS011;8185;57.818;15.224;2023-01-04T14:38:40;0.30;;;0.30;;
16159;SDS011;8185;57.818;15.224;2023-01-04T14:41:11;0.20;;;0.20;;
16159;SDS011;8185;57.818;15.224;2023-01-04T14:43:45;0.20;;;0.20;;
16159;SDS011;8185;57.818;15.224;2023-01-04T14:46:15;0.20;;;0.20;;
16159;SDS011;8185;57.818;15.224;2023-01-04T14:48:42;0.40;;;0.30;;
16159;SDS011;8185;57.818;15.224;2023-01-04T14:51:10;0.20;;;0.20;;
16159;SDS011;8185;57.818;15.224;2023-01-04T14:53:40;0.20;;;0.20;;
16159;SDS011;8185;57.818;15.224;2023-01-04T14:56:08;0.30;;;0.30;;
16159;SDS011;8185;57.818;15.224;2023-01-04T14:58:37;0.40;;;0.30;;
16159;SDS011;8185;57.818;15.224;2023-01-04T15:01:05;0.30;;;0.30;;
16159;SDS011;8185;57.818;15.224;2023-01-04T15:03:33;0.27;;;0.27;;
16159;SDS011;8185;57.818;15.224;2023-01-04T15:06:00;0.30;;;0.20;;
16159;SDS011;8185;57.818;15.224;2023-01-04T15:08:28;0.20;;;0.20;;
16159;SDS011;8185;57.818;15.224;2023-01-04T15:10:56;0.30;;;0.30;;
16159;SDS011;8185;57.818;15.224;2023-01-04T15:13:23;0.20;;;0.20;;
16159;SDS011;8185;57.818;15.224;2023-01-04T15:15:51;0.30;;;0.30;;
16159;SDS011;8185;57.818;15.224;2023-01-04T15:18:18;0.20;;;0.20;;
16159;SDS011;8185;57.818;15.224;2023-01-04T15:20:46;0.30;;;0.30;;
16159;SDS011;8185;57.818;15.224;2023-01-04T15:23:14;0.20;;;0.20;;
16159;SDS011;8185;57.818;15.224;2023-01-04T15:25:41;0.30;;;0.30;;
16159;SDS011;8185;57.818;15.224;2023-01-04T15:28:08;0.30;;;0.30;;
16159;SDS011;8185;57.818;15.224;2023-01-04T15:30:39;0.23;;;0.23;;
16159;SDS011;8185;57.818;15.224;2023-01-04T15:33:06;0.20;;;0.20;;
16159;SDS011;8185;57.818;15.224;2023-01-04T15:35:34;0.30;;;0.30;;
16159;SDS011;8185;57.818;15.224;2023-01-04T15:38:02;0.30;;;0.30;;
16159;SDS011;8185;57.818;15.224;2023-01-04T15:40:30;1.40;;;0.30;;
16159;SDS011;8185;57.818;15.224;2023-01-04T15:42:57;0.30;;;0.30;;
16159;SDS011;8185;57.818;15.224;2023-01-04T15:45:23;0.20;;;0.20;;
16159;SDS011;8185;57.818;15.224;2023-01-04T15:47:50;0.30;;;0.30;;
16159;SDS011;8185;57.818;15.224;2023-01-04T15:50:18;0.30;;;0.30;;